Meteopurmerend
purmerend
Purmerend - Baaienwijk



My webcam  My webcam


Onweer radar Meer informatie blitzortung!


Regen radar Meer informatie rain snow radar


Bezoek onze andere website:

CandyAppleRed WebdesignWebdesign Purmerend Candy Apple Red

MeteopurmerendBlog

Template documentation
and downloads



Het weer levert geen direct gevaar op.    Er zijn geen waarschuwingen afgegeven.

METAR rapporten vliegvelden

   
EHAM - Amsterdam
Gewijzigd: 17-08-2018 10:55
Gedeeltelijk bewolkt  
Gedeeltelijk bewolkt  
   Wind: varieert 3.7 km/h
Wind: varieert 3.7 km/h
Temperatuur: 20°C
Dauwpunt: 13°C
Vochtigheid: 64%
Barometer: 1018 hPa
Bewolking: Partly Cloudy
Zicht: meer dan 10 km
Bewolking: Gedeeltelijk bewolkt 3200 ft
EHAM 170855Z VRB02KT 9999 SCT032 20/13 Q1018 NOSIG
EHRD - Rotterdam
Gewijzigd: 17-08-2018 10:55
Helder  
Helder  
   Wind: Westen 7.4 km/h
Wind: Westen 7.4 km/h
Temperatuur: 20°C
Dauwpunt: 13°C
Vochtigheid: 64%
Barometer: 1018 hPa
Bewolking: Clear
Zicht: meer dan 10 km
Bewolking: Helder ft
EHRD 170855Z AUTO 26004KT 220V020 9999 NCD 20/13 Q1018 NOSIG
EHLE - Lelystad
Gewijzigd: 01-01-1970 01:00
Verouderd
  
  
   Wind: Kalm
Wind: Kalm
EHBK - Maastricht
Gewijzigd: 17-08-2018 10:55
Bewolking  
Bewolking  
   Wind: Noorden 7.4 km/h
Wind: Noorden 7.4 km/h
Temperatuur: 16°C
Dauwpunt: 15°C
Vochtigheid: 94%
Barometer: 1018 hPa
Bewolking: Overcast
Zicht: meer dan 10 km
Bewolking: Licht bewolkt 800 ft,
Grotendeels bewolkt 1700 ft,
Bewolking 2000 ft
EHBK 170855Z AUTO 35004KT 310V020 9999 FEW008 BKN017 OVC020 16/15 Q1018 REDZ NOSIG
ELLX - Luxemburg
Gewijzigd: 17-08-2018 10:50
Licht bewolkt  
Licht bewolkt  
   Wind: NO 20.4 km/h
Wind: NO 20.4 km/h
Temperatuur: 21°C
Dauwpunt: 16°C
Vochtigheid: 73%
Barometer: 1017 hPa
Bewolking: Few Clouds
Zicht: meer dan 10 km
Bewolking: Licht bewolkt 1500 ft
ELLX 170850Z 04011KT 9999 FEW015CB 21/16 Q1017 NOSIG
EBOS - Oostende
Gewijzigd: 17-08-2018 10:50
Licht bewolkt  
Licht bewolkt  
   Wind: NW 14.8 km/h
Wind: NW 14.8 km/h
Temperatuur: 19°C
Dauwpunt: 11°C
Vochtigheid: 60%
Barometer: 1020 hPa
Bewolking: Few Clouds
Zicht: meer dan 10 km
Bewolking: Licht bewolkt 3200 ft
EBOS 170850Z 31008KT 9999 FEW032 19/11 Q1020 NOSIG

Script ontwikkeld door  Saratoga-weather.org Aangepast voor de template door  Weerstation Leuven

U vindt ons ook hier:

UK Metoffice

European Weather Network

Weather Underground

AWEKAS

Citizen Weather Observer Program (CWOP)

HAMweather, WeatherForYou, PWS Weather

Apparatuur in gebruik:

Weerstation
Davis Vue

Weerprogramma
Meteobridge

Weercomputer
QR code

Webleverancier
Wned

Davis Vue

Meteobridge

QR code

Wned